sensor_id;sensor_type;location;lat;lon;timestamp;P1;durP1;ratioP1;P2;durP2;ratioP2
80322;SDS011;69636;52.372;13.610;2024-02-21T00:00:02;10.60;;;7.32;;
80322;SDS011;69636;52.372;13.610;2024-02-21T00:02:29;13.18;;;5.43;;
80322;SDS011;69636;52.372;13.610;2024-02-21T00:04:57;10.35;;;4.85;;
80322;SDS011;69636;52.372;13.610;2024-02-21T00:07:26;10.40;;;4.97;;
80322;SDS011;69636;52.372;13.610;2024-02-21T00:09:53;11.18;;;5.63;;
80322;SDS011;69636;52.372;13.610;2024-02-21T00:12:20;11.15;;;5.45;;
80322;SDS011;69636;52.372;13.610;2024-02-21T00:14:48;12.52;;;4.97;;
80322;SDS011;69636;52.372;13.610;2024-02-21T00:17:15;11.40;;;6.43;;
80322;SDS011;69636;52.372;13.610;2024-02-21T00:19:42;10.82;;;4.97;;
80322;SDS011;69636;52.372;13.610;2024-02-21T00:22:10;13.65;;;5.07;;
80322;SDS011;69636;52.372;13.610;2024-02-21T00:24:38;12.23;;;5.95;;
80322;SDS011;69636;52.372;13.610;2024-02-21T00:27:06;10.48;;;5.57;;
80322;SDS011;69636;52.372;13.610;2024-02-21T00:29:33;16.63;;;5.95;;
80322;SDS011;69636;52.372;13.610;2024-02-21T00:32:00;9.52;;;5.22;;
80322;SDS011;69636;52.372;13.610;2024-02-21T00:34:28;13.25;;;6.82;;
80322;SDS011;69636;52.372;13.610;2024-02-21T00:36:55;11.38;;;5.25;;
80322;SDS011;69636;52.372;13.610;2024-02-21T00:39:23;12.82;;;5.95;;
80322;SDS011;69636;52.372;13.610;2024-02-21T00:41:51;10.93;;;5.90;;
80322;SDS011;69636;52.372;13.610;2024-02-21T00:44:19;14.57;;;6.45;;
80322;SDS011;69636;52.372;13.610;2024-02-21T00:46:46;12.07;;;4.65;;
80322;SDS011;69636;52.372;13.610;2024-02-21T00:49:13;14.30;;;6.05;;
80322;SDS011;69636;52.372;13.610;2024-02-21T00:51:41;11.98;;;7.10;;
80322;SDS011;69636;52.372;13.610;2024-02-21T00:54:08;11.05;;;4.95;;
80322;SDS011;69636;52.372;13.610;2024-02-21T00:56:36;10.25;;;4.75;;
80322;SDS011;69636;52.372;13.610;2024-02-21T00:59:04;13.60;;;5.35;;
80322;SDS011;69636;52.372;13.610;2024-02-21T01:01:32;12.55;;;6.82;;
80322;SDS011;69636;52.372;13.610;2024-02-21T01:03:59;13.20;;;5.07;;
80322;SDS011;69636;52.372;13.610;2024-02-21T01:06:27;10.77;;;4.78;;
80322;SDS011;69636;52.372;13.610;2024-02-21T01:08:54;10.15;;;4.22;;
80322;SDS011;69636;52.372;13.610;2024-02-21T01:11:21;11.82;;;5.53;;
80322;SDS011;69636;52.372;13.610;2024-02-21T01:13:49;9.05;;;4.68;;
80322;SDS011;69636;52.372;13.610;2024-02-21T01:16:18;11.70;;;4.68;;
80322;SDS011;69636;52.372;13.610;2024-02-21T01:18:45;15.85;;;6.68;;
80322;SDS011;69636;52.372;13.610;2024-02-21T01:21:13;12.32;;;5.20;;
80322;SDS011;69636;52.372;13.610;2024-02-21T01:23:40;13.43;;;6.65;;
80322;SDS011;69636;52.372;13.610;2024-02-21T01:26:07;10.98;;;4.88;;
80322;SDS011;69636;52.372;13.610;2024-02-21T01:28:34;9.65;;;4.82;;
80322;SDS011;69636;52.372;13.610;2024-02-21T01:31:02;5.88;;;4.20;;
80322;SDS011;69636;52.372;13.610;2024-02-21T01:33:31;14.13;;;5.40;;
80322;SDS011;69636;52.372;13.610;2024-02-21T01:35:58;14.20;;;4.50;;
80322;SDS011;69636;52.372;13.610;2024-02-21T01:38:26;10.13;;;4.35;;
80322;SDS011;69636;52.372;13.610;2024-02-21T01:40:53;11.30;;;4.72;;
80322;SDS011;69636;52.372;13.610;2024-02-21T01:43:21;14.07;;;5.13;;
80322;SDS011;69636;52.372;13.610;2024-02-21T01:45:49;11.00;;;5.85;;
80322;SDS011;69636;52.372;13.610;2024-02-21T01:48:19;11.93;;;7.38;;
80322;SDS011;69636;52.372;13.610;2024-02-21T01:50:48;9.30;;;3.97;;
80322;SDS011;69636;52.372;13.610;2024-02-21T01:53:16;14.23;;;5.90;;
80322;SDS011;69636;52.372;13.610;2024-02-21T01:55:47;12.38;;;5.30;;
80322;SDS011;69636;52.372;13.610;2024-02-21T01:58:14;12.48;;;5.00;;
80322;SDS011;69636;52.372;13.610;2024-02-21T02:00:43;9.32;;;4.60;;
80322;SDS011;69636;52.372;13.610;2024-02-21T02:05:38;9.68;;;4.82;;
80322;SDS011;69636;52.372;13.610;2024-02-21T02:08:07;9.98;;;5.35;;
80322;SDS011;69636;52.372;13.610;2024-02-21T02:10:35;14.27;;;5.72;;
80322;SDS011;69636;52.372;13.610;2024-02-21T02:13:02;9.55;;;4.28;;
80322;SDS011;69636;52.372;13.610;2024-02-21T02:15:37;13.07;;;4.75;;
80322;SDS011;69636;52.372;13.610;2024-02-21T02:18:05;7.53;;;3.83;;
80322;SDS011;69636;52.372;13.610;2024-02-21T02:20:33;11.43;;;4.35;;
80322;SDS011;69636;52.372;13.610;2024-02-21T02:23:01;11.40;;;5.00;;
80322;SDS011;69636;52.372;13.610;2024-02-21T02:25:35;10.15;;;4.60;;
80322;SDS011;69636;52.372;13.610;2024-02-21T02:28:03;8.60;;;3.97;;
80322;SDS011;69636;52.372;13.610;2024-02-21T02:30:32;11.25;;;4.60;;
80322;SDS011;69636;52.372;13.610;2024-02-21T02:33:00;11.70;;;4.68;;
80322;SDS011;69636;52.372;13.610;2024-02-21T02:35:27;12.43;;;5.07;;
80322;SDS011;69636;52.372;13.610;2024-02-21T02:37:55;10.15;;;5.03;;
80322;SDS011;69636;52.372;13.610;2024-02-21T02:40:22;14.93;;;5.10;;
80322;SDS011;69636;52.372;13.610;2024-02-21T02:42:51;10.93;;;4.45;;
80322;SDS011;69636;52.372;13.610;2024-02-21T02:45:19;10.80;;;5.30;;
80322;SDS011;69636;52.372;13.610;2024-02-21T02:47:46;11.77;;;5.65;;
80322;SDS011;69636;52.372;13.610;2024-02-21T02:50:14;8.82;;;4.55;;
80322;SDS011;69636;52.372;13.610;2024-02-21T02:52:41;13.05;;;5.45;;
80322;SDS011;69636;52.372;13.610;2024-02-21T02:55:09;11.25;;;5.03;;
80322;SDS011;69636;52.372;13.610;2024-02-21T02:57:36;11.68;;;5.18;;
80322;SDS011;69636;52.372;13.610;2024-02-21T03:00:05;12.32;;;6.65;;
80322;SDS011;69636;52.372;13.610;2024-02-21T03:02:34;11.90;;;5.75;;
80322;SDS011;69636;52.372;13.610;2024-02-21T03:05:01;9.60;;;6.47;;
80322;SDS011;69636;52.372;13.610;2024-02-21T03:07:39;15.45;;;5.63;;
80322;SDS011;69636;52.372;13.610;2024-02-21T03:10:06;10.77;;;5.97;;
80322;SDS011;69636;52.372;13.610;2024-02-21T03:12:34;11.20;;;6.38;;
80322;SDS011;69636;52.372;13.610;2024-02-21T03:15:01;11.88;;;5.05;;
80322;SDS011;69636;52.372;13.610;2024-02-21T03:17:30;14.75;;;6.65;;
80322;SDS011;69636;52.372;13.610;2024-02-21T03:19:58;8.77;;;4.72;;
80322;SDS011;69636;52.372;13.610;2024-02-21T03:22:26;9.95;;;5.32;;
80322;SDS011;69636;52.372;13.610;2024-02-21T03:24:53;13.80;;;5.28;;
80322;SDS011;69636;52.372;13.610;2024-02-21T03:27:20;12.50;;;5.97;;
80322;SDS011;69636;52.372;13.610;2024-02-21T03:29:48;10.60;;;5.18;;
80322;SDS011;69636;52.372;13.610;2024-02-21T03:32:15;10.48;;;8.05;;
80322;SDS011;69636;52.372;13.610;2024-02-21T03:34:44;17.98;;;6.90;;
80322;SDS011;69636;52.372;13.610;2024-02-21T03:37:11;14.65;;;5.93;;
80322;SDS011;69636;52.372;13.610;2024-02-21T03:39:38;17.60;;;6.22;;
80322;SDS011;69636;52.372;13.610;2024-02-21T03:42:06;15.60;;;8.50;;
80322;SDS011;69636;52.372;13.610;2024-02-21T03:44:33;14.77;;;5.97;;
80322;SDS011;69636;52.372;13.610;2024-02-21T03:47:01;11.55;;;6.45;;
80322;SDS011;69636;52.372;13.610;2024-02-21T03:49:28;13.80;;;6.25;;
80322;SDS011;69636;52.372;13.610;2024-02-21T03:51:57;9.93;;;6.55;;
80322;SDS011;69636;52.372;13.610;2024-02-21T03:54:25;10.90;;;6.30;;
80322;SDS011;69636;52.372;13.610;2024-02-21T03:56:52;12.23;;;6.50;;
80322;SDS011;69636;52.372;13.610;2024-02-21T03:59:19;13.30;;;5.85;;
80322;SDS011;69636;52.372;13.610;2024-02-21T04:01:46;14.30;;;6.13;;
80322;SDS011;69636;52.372;13.610;2024-02-21T04:04:18;12.15;;;5.18;;
80322;SDS011;69636;52.372;13.610;2024-02-21T04:06:45;13.55;;;6.07;;
80322;SDS011;69636;52.372;13.610;2024-02-21T04:09:14;16.67;;;7.47;;
80322;SDS011;69636;52.372;13.610;2024-02-21T04:11:42;11.95;;;6.30;;
80322;SDS011;69636;52.372;13.610;2024-02-21T04:14:10;14.60;;;5.57;;
80322;SDS011;69636;52.372;13.610;2024-02-21T04:16:37;10.32;;;6.80;;
80322;SDS011;69636;52.372;13.610;2024-02-21T04:19:04;16.52;;;6.80;;
80322;SDS011;69636;52.372;13.610;2024-02-21T04:21:32;11.70;;;8.73;;
80322;SDS011;69636;52.372;13.610;2024-02-21T04:23:59;12.90;;;6.57;;
80322;SDS011;69636;52.372;13.610;2024-02-21T04:26:28;12.40;;;6.43;;
80322;SDS011;69636;52.372;13.610;2024-02-21T04:28:55;17.50;;;6.95;;
80322;SDS011;69636;52.372;13.610;2024-02-21T04:31:23;11.32;;;7.82;;
80322;SDS011;69636;52.372;13.610;2024-02-21T04:33:50;16.52;;;7.28;;
80322;SDS011;69636;52.372;13.610;2024-02-21T04:36:18;15.02;;;6.70;;
80322;SDS011;69636;52.372;13.610;2024-02-21T04:38:45;12.95;;;6.70;;
80322;SDS011;69636;52.372;13.610;2024-02-21T04:41:13;13.57;;;6.80;;
80322;SDS011;69636;52.372;13.610;2024-02-21T04:43:41;15.80;;;6.40;;
80322;SDS011;69636;52.372;13.610;2024-02-21T04:46:09;13.10;;;6.85;;
80322;SDS011;69636;52.372;13.610;2024-02-21T04:48:36;14.52;;;6.40;;
80322;SDS011;69636;52.372;13.610;2024-02-21T04:51:03;12.55;;;8.23;;
80322;SDS011;69636;52.372;13.610;2024-02-21T04:53:31;12.25;;;6.65;;
80322;SDS011;69636;52.372;13.610;2024-02-21T04:55:58;13.65;;;6.28;;
80322;SDS011;69636;52.372;13.610;2024-02-21T05:00:55;11.82;;;6.10;;
80322;SDS011;69636;52.372;13.610;2024-02-21T05:03:22;12.40;;;8.38;;
80322;SDS011;69636;52.372;13.610;2024-02-21T05:05:50;18.23;;;7.00;;
80322;SDS011;69636;52.372;13.610;2024-02-21T05:08:17;11.90;;;6.03;;
80322;SDS011;69636;52.372;13.610;2024-02-21T05:10:45;9.13;;;6.15;;
80322;SDS011;69636;52.372;13.610;2024-02-21T05:13:12;14.27;;;6.63;;
80322;SDS011;69636;52.372;13.610;2024-02-21T05:15:40;13.55;;;6.70;;
80322;SDS011;69636;52.372;13.610;2024-02-21T05:18:08;12.85;;;7.57;;
80322;SDS011;69636;52.372;13.610;2024-02-21T05:20:36;15.00;;;6.63;;
80322;SDS011;69636;52.372;13.610;2024-02-21T05:23:03;10.75;;;7.10;;
80322;SDS011;69636;52.372;13.610;2024-02-21T05:25:31;9.32;;;5.88;;
80322;SDS011;69636;52.372;13.610;2024-02-21T05:27:58;10.43;;;6.38;;
80322;SDS011;69636;52.372;13.610;2024-02-21T05:30:25;14.63;;;5.60;;
80322;SDS011;69636;52.372;13.610;2024-02-21T05:32:53;15.23;;;6.60;;
80322;SDS011;69636;52.372;13.610;2024-02-21T05:35:25;14.27;;;6.03;;
80322;SDS011;69636;52.372;13.610;2024-02-21T05:37:53;14.02;;;5.72;;
80322;SDS011;69636;52.372;13.610;2024-02-21T05:40:21;14.38;;;5.88;;
80322;SDS011;69636;52.372;13.610;2024-02-21T05:42:48;14.95;;;5.53;;
80322;SDS011;69636;52.372;13.610;2024-02-21T05:45:15;13.30;;;5.97;;
80322;SDS011;69636;52.372;13.610;2024-02-21T05:47:43;9.60;;;6.05;;
80322;SDS011;69636;52.372;13.610;2024-02-21T05:50:11;14.88;;;7.00;;
80322;SDS011;69636;52.372;13.610;2024-02-21T05:52:40;12.35;;;6.18;;
80322;SDS011;69636;52.372;13.610;2024-02-21T05:55:07;13.05;;;8.32;;
80322;SDS011;69636;52.372;13.610;2024-02-21T05:57:34;13.82;;;6.40;;
80322;SDS011;69636;52.372;13.610;2024-02-21T06:00:03;15.63;;;7.40;;
80322;SDS011;69636;52.372;13.610;2024-02-21T06:02:31;14.05;;;7.03;;
80322;SDS011;69636;52.372;13.610;2024-02-21T06:04:59;16.80;;;9.02;;
80322;SDS011;69636;52.372;13.610;2024-02-21T06:07:26;17.17;;;8.10;;
80322;SDS011;69636;52.372;13.610;2024-02-21T06:09:55;16.95;;;8.18;;
80322;SDS011;69636;52.372;13.610;2024-02-21T06:12:22;18.02;;;7.15;;
80322;SDS011;69636;52.372;13.610;2024-02-21T06:14:50;12.00;;;6.03;;
80322;SDS011;69636;52.372;13.610;2024-02-21T06:17:17;14.20;;;7.03;;
80322;SDS011;69636;52.372;13.610;2024-02-21T06:19:45;13.02;;;9.55;;
80322;SDS011;69636;52.372;13.610;2024-02-21T06:22:12;15.15;;;7.88;;
80322;SDS011;69636;52.372;13.610;2024-02-21T06:24:40;12.40;;;7.45;;
80322;SDS011;69636;52.372;13.610;2024-02-21T06:27:08;13.07;;;7.13;;
80322;SDS011;69636;52.372;13.610;2024-02-21T06:29:37;13.52;;;6.70;;
80322;SDS011;69636;52.372;13.610;2024-02-21T06:32:05;17.90;;;8.63;;
80322;SDS011;69636;52.372;13.610;2024-02-21T06:34:32;17.08;;;6.75;;
80322;SDS011;69636;52.372;13.610;2024-02-21T06:37:01;14.77;;;6.82;;
80322;SDS011;69636;52.372;13.610;2024-02-21T06:39:29;12.93;;;6.20;;
80322;SDS011;69636;52.372;13.610;2024-02-21T06:41:56;13.02;;;6.95;;
80322;SDS011;69636;52.372;13.610;2024-02-21T06:44:30;16.85;;;7.35;;
80322;SDS011;69636;52.372;13.610;2024-02-21T06:46:58;13.52;;;5.25;;
80322;SDS011;69636;52.372;13.610;2024-02-21T06:49:25;10.57;;;5.15;;
80322;SDS011;69636;52.372;13.610;2024-02-21T06:51:53;15.18;;;6.88;;
80322;SDS011;69636;52.372;13.610;2024-02-21T06:54:20;17.35;;;7.63;;
80322;SDS011;69636;52.372;13.610;2024-02-21T06:56:47;9.52;;;6.32;;
80322;SDS011;69636;52.372;13.610;2024-02-21T06:59:15;10.45;;;6.18;;
80322;SDS011;69636;52.372;13.610;2024-02-21T07:01:46;14.85;;;7.38;;
80322;SDS011;69636;52.372;13.610;2024-02-21T07:04:14;11.55;;;6.82;;
80322;SDS011;69636;52.372;13.610;2024-02-21T07:06:41;9.65;;;6.18;;
80322;SDS011;69636;52.372;13.610;2024-02-21T07:09:09;12.55;;;6.50;;
80322;SDS011;69636;52.372;13.610;2024-02-21T07:11:36;13.82;;;6.18;;
80322;SDS011;69636;52.372;13.610;2024-02-21T07:14:03;11.13;;;5.93;;
80322;SDS011;69636;52.372;13.610;2024-02-21T07:16:31;14.07;;;7.65;;
80322;SDS011;69636;52.372;13.610;2024-02-21T07:19:00;10.23;;;5.68;;
80322;SDS011;69636;52.372;13.610;2024-02-21T07:21:27;8.90;;;5.10;;
80322;SDS011;69636;52.372;13.610;2024-02-21T07:23:55;10.80;;;5.75;;
80322;SDS011;69636;52.372;13.610;2024-02-21T07:26:22;12.18;;;5.80;;
80322;SDS011;69636;52.372;13.610;2024-02-21T07:28:49;10.73;;;5.07;;
80322;SDS011;69636;52.372;13.610;2024-02-21T07:31:17;11.73;;;6.75;;
80322;SDS011;69636;52.372;13.610;2024-02-21T07:33:44;12.98;;;6.63;;
80322;SDS011;69636;52.372;13.610;2024-02-21T07:36:14;11.40;;;5.70;;
80322;SDS011;69636;52.372;13.610;2024-02-21T07:38:42;12.82;;;6.53;;
80322;SDS011;69636;52.372;13.610;2024-02-21T07:41:10;11.50;;;6.07;;
80322;SDS011;69636;52.372;13.610;2024-02-21T07:43:37;11.50;;;5.90;;
80322;SDS011;69636;52.372;13.610;2024-02-21T07:46:05;11.85;;;5.60;;
80322;SDS011;69636;52.372;13.610;2024-02-21T07:48:32;11.88;;;5.38;;
80322;SDS011;69636;52.372;13.610;2024-02-21T07:51:01;15.52;;;5.63;;
80322;SDS011;69636;52.372;13.610;2024-02-21T07:53:30;12.15;;;8.63;;
80322;SDS011;69636;52.372;13.610;2024-02-21T07:55:58;7.93;;;5.72;;
80322;SDS011;69636;52.372;13.610;2024-02-21T07:58:25;9.88;;;7.22;;
80322;SDS011;69636;52.372;13.610;2024-02-21T08:00:52;9.63;;;6.00;;
80322;SDS011;69636;52.372;13.610;2024-02-21T08:03:20;11.70;;;7.00;;
80322;SDS011;69636;52.372;13.610;2024-02-21T08:05:47;9.55;;;6.30;;
80322;SDS011;69636;52.372;13.610;2024-02-21T08:08:15;8.98;;;6.75;;
80322;SDS011;69636;52.372;13.610;2024-02-21T08:10:44;13.85;;;7.88;;
80322;SDS011;69636;52.372;13.610;2024-02-21T08:13:11;11.25;;;6.60;;
80322;SDS011;69636;52.372;13.610;2024-02-21T08:15:38;11.23;;;5.57;;
80322;SDS011;69636;52.372;13.610;2024-02-21T08:18:06;11.00;;;6.25;;
80322;SDS011;69636;52.372;13.610;2024-02-21T08:20:33;12.07;;;6.25;;
80322;SDS011;69636;52.372;13.610;2024-02-21T08:23:00;15.00;;;6.15;;
80322;SDS011;69636;52.372;13.610;2024-02-21T08:25:28;10.93;;;5.75;;
80322;SDS011;69636;52.372;13.610;2024-02-21T08:27:58;12.13;;;6.45;;
80322;SDS011;69636;52.372;13.610;2024-02-21T08:30:26;10.73;;;6.18;;
80322;SDS011;69636;52.372;13.610;2024-02-21T08:32:53;11.80;;;7.55;;
80322;SDS011;69636;52.372;13.610;2024-02-21T08:35:21;13.95;;;7.45;;
80322;SDS011;69636;52.372;13.610;2024-02-21T08:37:48;11.15;;;6.88;;
80322;SDS011;69636;52.372;13.610;2024-02-21T08:40:16;12.63;;;6.63;;
80322;SDS011;69636;52.372;13.610;2024-02-21T08:42:43;12.27;;;5.93;;
80322;SDS011;69636;52.372;13.610;2024-02-21T08:45:12;9.73;;;5.30;;
80322;SDS011;69636;52.372;13.610;2024-02-21T08:47:40;12.80;;;5.03;;
80322;SDS011;69636;52.372;13.610;2024-02-21T08:50:07;14.70;;;6.38;;
80322;SDS011;69636;52.372;13.610;2024-02-21T08:52:52;14.85;;;9.43;;
80322;SDS011;69636;52.372;13.610;2024-02-21T08:55:20;13.13;;;7.00;;
80322;SDS011;69636;52.372;13.610;2024-02-21T08:57:47;10.90;;;7.32;;
80322;SDS011;69636;52.372;13.610;2024-02-21T09:00:17;13.98;;;7.57;;
80322;SDS011;69636;52.372;13.610;2024-02-21T09:02:44;11.13;;;5.55;;
80322;SDS011;69636;52.372;13.610;2024-02-21T09:05:12;15.35;;;7.68;;
80322;SDS011;69636;52.372;13.610;2024-02-21T09:07:39;8.30;;;5.60;;
80322;SDS011;69636;52.372;13.610;2024-02-21T09:10:07;11.30;;;6.63;;
80322;SDS011;69636;52.372;13.610;2024-02-21T09:12:35;12.68;;;5.57;;
80322;SDS011;69636;52.372;13.610;2024-02-21T09:15:03;9.82;;;6.80;;
80322;SDS011;69636;52.372;13.610;2024-02-21T09:19:59;15.93;;;7.78;;
80322;SDS011;69636;52.372;13.610;2024-02-21T09:22:27;14.80;;;6.78;;
80322;SDS011;69636;52.372;13.610;2024-02-21T09:24:55;13.23;;;6.40;;
80322;SDS011;69636;52.372;13.610;2024-02-21T09:27:22;16.08;;;7.32;;
80322;SDS011;69636;52.372;13.610;2024-02-21T09:29:50;10.93;;;7.13;;
80322;SDS011;69636;52.372;13.610;2024-02-21T09:32:17;11.00;;;6.10;;
80322;SDS011;69636;52.372;13.610;2024-02-21T09:34:46;12.30;;;7.22;;
80322;SDS011;69636;52.372;13.610;2024-02-21T09:37:14;13.52;;;7.32;;
80322;SDS011;69636;52.372;13.610;2024-02-21T09:39:41;11.10;;;5.63;;
80322;SDS011;69636;52.372;13.610;2024-02-21T09:42:08;12.80;;;6.30;;
80322;SDS011;69636;52.372;13.610;2024-02-21T09:44:38;10.20;;;5.50;;
80322;SDS011;69636;52.372;13.610;2024-02-21T09:47:06;12.23;;;7.38;;
80322;SDS011;69636;52.372;13.610;2024-02-21T09:49:36;9.35;;;6.13;;
80322;SDS011;69636;52.372;13.610;2024-02-21T09:52:05;11.93;;;6.00;;
80322;SDS011;69636;52.372;13.610;2024-02-21T09:54:33;8.95;;;7.38;;
80322;SDS011;69636;52.372;13.610;2024-02-21T09:59:28;11.52;;;5.90;;
80322;SDS011;69636;52.372;13.610;2024-02-21T10:01:57;11.05;;;6.75;;
80322;SDS011;69636;52.372;13.610;2024-02-21T10:04:25;9.60;;;6.15;;
80322;SDS011;69636;52.372;13.610;2024-02-21T10:06:53;11.95;;;6.32;;
80322;SDS011;69636;52.372;13.610;2024-02-21T10:09:22;12.52;;;6.38;;
80322;SDS011;69636;52.372;13.610;2024-02-21T10:11:50;13.30;;;6.35;;
80322;SDS011;69636;52.372;13.610;2024-02-21T10:14:18;10.93;;;7.30;;
80322;SDS011;69636;52.372;13.610;2024-02-21T10:16:46;12.48;;;6.10;;
80322;SDS011;69636;52.372;13.610;2024-02-21T10:19:18;13.57;;;6.63;;
80322;SDS011;69636;52.372;13.610;2024-02-21T10:22:02;10.38;;;5.70;;
80322;SDS011;69636;52.372;13.610;2024-02-21T10:24:31;10.15;;;5.38;;
80322;SDS011;69636;52.372;13.610;2024-02-21T10:27:00;10.15;;;5.32;;
80322;SDS011;69636;52.372;13.610;2024-02-21T10:29:31;17.85;;;5.45;;
80322;SDS011;69636;52.372;13.610;2024-02-21T10:32:05;11.65;;;5.65;;
80322;SDS011;69636;52.372;13.610;2024-02-21T10:34:35;13.00;;;6.55;;
80322;SDS011;69636;52.372;13.610;2024-02-21T10:37:04;13.85;;;6.30;;
80322;SDS011;69636;52.372;13.610;2024-02-21T10:39:35;12.07;;;5.53;;
80322;SDS011;69636;52.372;13.610;2024-02-21T10:42:04;9.98;;;5.53;;
80322;SDS011;69636;52.372;13.610;2024-02-21T10:44:32;10.35;;;6.40;;
80322;SDS011;69636;52.372;13.610;2024-02-21T10:47:02;7.95;;;5.90;;
80322;SDS011;69636;52.372;13.610;2024-02-21T10:49:35;12.77;;;6.18;;
80322;SDS011;69636;52.372;13.610;2024-02-21T10:52:06;10.30;;;6.50;;
80322;SDS011;69636;52.372;13.610;2024-02-21T10:54:44;10.90;;;5.35;;
80322;SDS011;69636;52.372;13.610;2024-02-21T10:57:14;9.95;;;5.03;;
80322;SDS011;69636;52.372;13.610;2024-02-21T10:59:44;12.07;;;5.97;;
80322;SDS011;69636;52.372;13.610;2024-02-21T11:02:12;10.07;;;4.95;;
80322;SDS011;69636;52.372;13.610;2024-02-21T11:04:40;10.38;;;5.68;;
80322;SDS011;69636;52.372;13.610;2024-02-21T11:07:09;11.00;;;5.72;;
80322;SDS011;69636;52.372;13.610;2024-02-21T11:09:37;10.02;;;5.65;;
80322;SDS011;69636;52.372;13.610;2024-02-21T11:12:06;13.02;;;5.38;;
80322;SDS011;69636;52.372;13.610;2024-02-21T11:14:37;10.05;;;5.93;;
80322;SDS011;69636;52.372;13.610;2024-02-21T11:17:14;7.97;;;5.68;;
80322;SDS011;69636;52.372;13.610;2024-02-21T11:19:42;9.85;;;7.60;;
80322;SDS011;69636;52.372;13.610;2024-02-21T11:22:14;9.65;;;5.22;;
80322;SDS011;69636;52.372;13.610;2024-02-21T11:24:42;11.07;;;7.78;;
80322;SDS011;69636;52.372;13.610;2024-02-21T11:27:11;9.43;;;5.80;;
80322;SDS011;69636;52.372;13.610;2024-02-21T11:29:39;8.98;;;5.50;;
80322;SDS011;69636;52.372;13.610;2024-02-21T11:32:09;9.77;;;6.00;;
80322;SDS011;69636;52.372;13.610;2024-02-21T11:34:36;9.00;;;5.40;;
80322;SDS011;69636;52.372;13.610;2024-02-21T11:37:04;8.93;;;4.82;;
80322;SDS011;69636;52.372;13.610;2024-02-21T11:39:40;9.60;;;4.43;;
80322;SDS011;69636;52.372;13.610;2024-02-21T11:42:08;7.50;;;4.35;;
80322;SDS011;69636;52.372;13.610;2024-02-21T11:44:37;6.43;;;4.97;;
80322;SDS011;69636;52.372;13.610;2024-02-21T11:47:04;7.82;;;4.97;;
80322;SDS011;69636;52.372;13.610;2024-02-21T11:49:35;10.32;;;5.70;;
80322;SDS011;69636;52.372;13.610;2024-02-21T11:52:04;8.15;;;5.20;;
80322;SDS011;69636;52.372;13.610;2024-02-21T11:54:32;7.18;;;3.97;;
80322;SDS011;69636;52.372;13.610;2024-02-21T11:57:00;8.32;;;5.97;;
80322;SDS011;69636;52.372;13.610;2024-02-21T11:59:29;11.35;;;4.85;;
80322;SDS011;69636;52.372;13.610;2024-02-21T12:01:58;6.90;;;3.97;;
80322;SDS011;69636;52.372;13.610;2024-02-21T12:04:26;6.88;;;4.10;;
80322;SDS011;69636;52.372;13.610;2024-02-21T12:09:22;6.88;;;4.35;;
80322;SDS011;69636;52.372;13.610;2024-02-21T12:14:24;7.32;;;4.82;;
80322;SDS011;69636;52.372;13.610;2024-02-21T12:19:22;6.40;;;3.63;;
80322;SDS011;69636;52.372;13.610;2024-02-21T12:21:50;6.18;;;4.45;;
80322;SDS011;69636;52.372;13.610;2024-02-21T12:24:17;9.25;;;4.15;;
80322;SDS011;69636;52.372;13.610;2024-02-21T12:26:48;7.78;;;4.07;;
80322;SDS011;69636;52.372;13.610;2024-02-21T12:29:16;7.63;;;3.83;;
80322;SDS011;69636;52.372;13.610;2024-02-21T12:31:43;6.75;;;4.75;;
80322;SDS011;69636;52.372;13.610;2024-02-21T12:34:14;7.32;;;4.45;;
80322;SDS011;69636;52.372;13.610;2024-02-21T12:36:43;7.18;;;4.20;;
80322;SDS011;69636;52.372;13.610;2024-02-21T12:39:11;8.32;;;5.32;;
80322;SDS011;69636;52.372;13.610;2024-02-21T12:41:39;9.18;;;4.65;;
80322;SDS011;69636;52.372;13.610;2024-02-21T12:44:07;9.05;;;4.45;;
80322;SDS011;69636;52.372;13.610;2024-02-21T12:46:35;9.73;;;5.15;;
80322;SDS011;69636;52.372;13.610;2024-02-21T12:49:02;6.68;;;4.13;;
80322;SDS011;69636;52.372;13.610;2024-02-21T12:53:59;7.88;;;4.47;;
80322;SDS011;69636;52.372;13.610;2024-02-21T12:56:27;9.23;;;4.88;;
80322;SDS011;69636;52.372;13.610;2024-02-21T12:58:54;8.52;;;4.88;;
80322;SDS011;69636;52.372;13.610;2024-02-21T13:01:21;7.93;;;3.97;;
80322;SDS011;69636;52.372;13.610;2024-02-21T13:03:49;10.10;;;3.88;;
80322;SDS011;69636;52.372;13.610;2024-02-21T13:06:16;7.70;;;4.50;;
80322;SDS011;69636;52.372;13.610;2024-02-21T13:08:44;11.27;;;6.85;;
80322;SDS011;69636;52.372;13.610;2024-02-21T13:11:12;10.02;;;5.13;;
80322;SDS011;69636;52.372;13.610;2024-02-21T13:13:40;6.45;;;4.55;;
80322;SDS011;69636;52.372;13.610;2024-02-21T13:16:07;6.43;;;3.95;;
80322;SDS011;69636;52.372;13.610;2024-02-21T13:18:35;8.63;;;4.70;;
80322;SDS011;69636;52.372;13.610;2024-02-21T13:21:03;7.97;;;3.97;;
80322;SDS011;69636;52.372;13.610;2024-02-21T13:23:30;8.38;;;4.80;;
80322;SDS011;69636;52.372;13.610;2024-02-21T13:25:58;5.97;;;3.95;;
80322;SDS011;69636;52.372;13.610;2024-02-21T13:28:27;9.82;;;4.22;;
80322;SDS011;69636;52.372;13.610;2024-02-21T13:30:54;6.65;;;4.00;;
80322;SDS011;69636;52.372;13.610;2024-02-21T13:33:21;6.47;;;3.65;;
80322;SDS011;69636;52.372;13.610;2024-02-21T13:35:49;7.00;;;4.13;;
80322;SDS011;69636;52.372;13.610;2024-02-21T13:38:16;7.45;;;3.80;;
80322;SDS011;69636;52.372;13.610;2024-02-21T13:40:43;7.60;;;6.90;;
80322;SDS011;69636;52.372;13.610;2024-02-21T13:43:11;6.68;;;5.25;;
80322;SDS011;69636;52.372;13.610;2024-02-21T13:45:40;5.35;;;3.88;;
80322;SDS011;69636;52.372;13.610;2024-02-21T13:48:07;7.15;;;3.88;;
80322;SDS011;69636;52.372;13.610;2024-02-21T13:50:35;8.25;;;3.58;;
80322;SDS011;69636;52.372;13.610;2024-02-21T13:53:02;7.35;;;4.63;;
80322;SDS011;69636;52.372;13.610;2024-02-21T13:55:30;7.68;;;3.90;;
80322;SDS011;69636;52.372;13.610;2024-02-21T13:57:57;5.85;;;3.30;;
80322;SDS011;69636;52.372;13.610;2024-02-21T14:00:24;8.32;;;3.53;;
80322;SDS011;69636;52.372;13.610;2024-02-21T14:02:53;6.13;;;3.75;;
80322;SDS011;69636;52.372;13.610;2024-02-21T14:05:21;6.13;;;4.35;;
80322;SDS011;69636;52.372;13.610;2024-02-21T14:07:48;6.07;;;3.25;;
80322;SDS011;69636;52.372;13.610;2024-02-21T14:10:15;5.80;;;4.60;;
80322;SDS011;69636;52.372;13.610;2024-02-21T14:12:43;6.18;;;4.00;;
80322;SDS011;69636;52.372;13.610;2024-02-21T14:15:10;8.40;;;4.10;;
80322;SDS011;69636;52.372;13.610;2024-02-21T14:17:37;7.97;;;3.33;;
80322;SDS011;69636;52.372;13.610;2024-02-21T14:20:07;6.50;;;3.33;;
80322;SDS011;69636;52.372;13.610;2024-02-21T14:22:35;7.53;;;3.95;;
80322;SDS011;69636;52.372;13.610;2024-02-21T14:25:02;5.72;;;3.38;;
80322;SDS011;69636;52.372;13.610;2024-02-21T14:27:30;6.15;;;3.03;;
80322;SDS011;69636;52.372;13.610;2024-02-21T14:29:57;7.30;;;3.42;;
80322;SDS011;69636;52.372;13.610;2024-02-21T14:32:25;6.60;;;4.15;;
80322;SDS011;69636;52.372;13.610;2024-02-21T14:34:52;6.00;;;3.42;;
80322;SDS011;69636;52.372;13.610;2024-02-21T14:37:21;5.90;;;4.38;;
80322;SDS011;69636;52.372;13.610;2024-02-21T14:39:49;5.65;;;3.63;;
80322;SDS011;69636;52.372;13.610;2024-02-21T14:42:16;5.25;;;2.65;;
80322;SDS011;69636;52.372;13.610;2024-02-21T14:44:43;5.45;;;3.13;;
80322;SDS011;69636;52.372;13.610;2024-02-21T14:47:11;6.32;;;3.17;;
80322;SDS011;69636;52.372;13.610;2024-02-21T14:49:38;6.78;;;4.03;;